sensor_id;sensor_type;location;lat;lon;timestamp;P1;durP1;ratioP1;P2;durP2;ratioP2
21513;SDS011;10918;48.102;11.636;2023-08-30T00:00:11;9.75;;;8.85;;
21513;SDS011;10918;48.102;11.636;2023-08-30T00:02:37;10.45;;;9.45;;
21513;SDS011;10918;48.102;11.636;2023-08-30T00:05:03;10.50;;;9.38;;
21513;SDS011;10918;48.102;11.636;2023-08-30T00:07:30;9.25;;;8.45;;
21513;SDS011;10918;48.102;11.636;2023-08-30T00:09:56;9.95;;;9.02;;
21513;SDS011;10918;48.102;11.636;2023-08-30T00:12:22;10.13;;;9.13;;
21513;SDS011;10918;48.102;11.636;2023-08-30T00:14:48;10.10;;;9.10;;
21513;SDS011;10918;48.102;11.636;2023-08-30T00:17:14;9.75;;;8.85;;
21513;SDS011;10918;48.102;11.636;2023-08-30T00:19:40;10.30;;;9.23;;
21513;SDS011;10918;48.102;11.636;2023-08-30T00:22:06;10.05;;;9.05;;
21513;SDS011;10918;48.102;11.636;2023-08-30T00:24:35;9.75;;;8.85;;
21513;SDS011;10918;48.102;11.636;2023-08-30T00:27:01;10.35;;;9.30;;
21513;SDS011;10918;48.102;11.636;2023-08-30T00:29:28;10.30;;;9.23;;
21513;SDS011;10918;48.102;11.636;2023-08-30T00:31:54;9.63;;;8.65;;
21513;SDS011;10918;48.102;11.636;2023-08-30T00:34:20;10.00;;;9.05;;
21513;SDS011;10918;48.102;11.636;2023-08-30T00:36:46;9.52;;;8.63;;
21513;SDS011;10918;48.102;11.636;2023-08-30T00:39:12;10.98;;;9.50;;
21513;SDS011;10918;48.102;11.636;2023-08-30T00:41:38;9.18;;;8.38;;
21513;SDS011;10918;48.102;11.636;2023-08-30T00:44:04;9.15;;;8.25;;
21513;SDS011;10918;48.102;11.636;2023-08-30T00:46:30;9.57;;;8.68;;
21513;SDS011;10918;48.102;11.636;2023-08-30T00:48:57;9.77;;;8.88;;
21513;SDS011;10918;48.102;11.636;2023-08-30T00:51:23;8.90;;;8.00;;
21513;SDS011;10918;48.102;11.636;2023-08-30T00:53:49;9.50;;;8.50;;
21513;SDS011;10918;48.102;11.636;2023-08-30T00:56:15;9.63;;;8.63;;
21513;SDS011;10918;48.102;11.636;2023-08-30T00:58:41;9.07;;;8.15;;
21513;SDS011;10918;48.102;11.636;2023-08-30T01:01:07;9.43;;;8.43;;
21513;SDS011;10918;48.102;11.636;2023-08-30T01:03:34;8.77;;;7.88;;
21513;SDS011;10918;48.102;11.636;2023-08-30T01:06:00;9.25;;;8.32;;
21513;SDS011;10918;48.102;11.636;2023-08-30T01:08:27;9.02;;;8.13;;
21513;SDS011;10918;48.102;11.636;2023-08-30T01:10:59;9.00;;;8.15;;
21513;SDS011;10918;48.102;11.636;2023-08-30T01:13:27;8.90;;;8.02;;
21513;SDS011;10918;48.102;11.636;2023-08-30T01:15:55;9.38;;;8.52;;
21513;SDS011;10918;48.102;11.636;2023-08-30T01:18:23;8.75;;;7.95;;
21513;SDS011;10918;48.102;11.636;2023-08-30T01:20:51;8.50;;;7.70;;
21513;SDS011;10918;48.102;11.636;2023-08-30T01:23:24;8.25;;;7.45;;
21513;SDS011;10918;48.102;11.636;2023-08-30T01:28:17;8.40;;;7.60;;
21513;SDS011;10918;48.102;11.636;2023-08-30T01:30:44;7.53;;;6.82;;
21513;SDS011;10918;48.102;11.636;2023-08-30T01:33:10;8.40;;;7.43;;
21513;SDS011;10918;48.102;11.636;2023-08-30T01:35:39;7.90;;;7.20;;
21513;SDS011;10918;48.102;11.636;2023-08-30T01:38:06;10.38;;;7.70;;
21513;SDS011;10918;48.102;11.636;2023-08-30T01:40:36;7.40;;;6.70;;
21513;SDS011;10918;48.102;11.636;2023-08-30T01:43:03;7.65;;;6.95;;
21513;SDS011;10918;48.102;11.636;2023-08-30T01:45:32;9.82;;;7.85;;
21513;SDS011;10918;48.102;11.636;2023-08-30T01:47:59;7.70;;;6.90;;
21513;SDS011;10918;48.102;11.636;2023-08-30T01:50:25;7.18;;;6.22;;
21513;SDS011;10918;48.102;11.636;2023-08-30T01:52:52;7.20;;;6.50;;
21513;SDS011;10918;48.102;11.636;2023-08-30T01:55:20;8.00;;;7.30;;
21513;SDS011;10918;48.102;11.636;2023-08-30T01:57:46;7.35;;;6.65;;
21513;SDS011;10918;48.102;11.636;2023-08-30T02:00:12;8.13;;;7.35;;
21513;SDS011;10918;48.102;11.636;2023-08-30T02:02:38;7.45;;;6.75;;
21513;SDS011;10918;48.102;11.636;2023-08-30T02:05:04;7.32;;;6.63;;
21513;SDS011;10918;48.102;11.636;2023-08-30T02:07:35;7.25;;;6.55;;
21513;SDS011;10918;48.102;11.636;2023-08-30T02:10:06;7.75;;;7.05;;
21513;SDS011;10918;48.102;11.636;2023-08-30T02:12:52;6.82;;;6.13;;
21513;SDS011;10918;48.102;11.636;2023-08-30T02:15:19;6.82;;;6.22;;
21513;SDS011;10918;48.102;11.636;2023-08-30T02:17:46;8.70;;;6.47;;
21513;SDS011;10918;48.102;11.636;2023-08-30T02:20:12;7.50;;;6.43;;
21513;SDS011;10918;48.102;11.636;2023-08-30T02:22:38;6.80;;;6.20;;
21513;SDS011;10918;48.102;11.636;2023-08-30T02:25:04;6.88;;;6.18;;
21513;SDS011;10918;48.102;11.636;2023-08-30T02:27:31;7.35;;;6.65;;
21513;SDS011;10918;48.102;11.636;2023-08-30T02:29:57;8.65;;;6.72;;
21513;SDS011;10918;48.102;11.636;2023-08-30T02:32:23;8.30;;;6.78;;
21513;SDS011;10918;48.102;11.636;2023-08-30T02:34:50;7.55;;;6.72;;
21513;SDS011;10918;48.102;11.636;2023-08-30T02:37:17;7.22;;;6.53;;
21513;SDS011;10918;48.102;11.636;2023-08-30T02:39:43;6.90;;;6.20;;
21513;SDS011;10918;48.102;11.636;2023-08-30T02:42:09;7.15;;;6.40;;
21513;SDS011;10918;48.102;11.636;2023-08-30T02:44:35;6.30;;;5.70;;
21513;SDS011;10918;48.102;11.636;2023-08-30T02:47:01;6.80;;;6.15;;
21513;SDS011;10918;48.102;11.636;2023-08-30T02:49:27;6.93;;;6.22;;
21513;SDS011;10918;48.102;11.636;2023-08-30T02:51:53;6.90;;;5.63;;
21513;SDS011;10918;48.102;11.636;2023-08-30T02:54:19;6.13;;;5.38;;
21513;SDS011;10918;48.102;11.636;2023-08-30T02:56:47;7.88;;;5.70;;
21513;SDS011;10918;48.102;11.636;2023-08-30T02:59:13;6.03;;;5.53;;
21513;SDS011;10918;48.102;11.636;2023-08-30T03:01:39;6.90;;;5.60;;
21513;SDS011;10918;48.102;11.636;2023-08-30T03:04:05;6.40;;;5.78;;
21513;SDS011;10918;48.102;11.636;2023-08-30T03:06:34;6.10;;;5.50;;
21513;SDS011;10918;48.102;11.636;2023-08-30T03:09:01;7.13;;;5.55;;
21513;SDS011;10918;48.102;11.636;2023-08-30T03:11:27;6.35;;;5.70;;
21513;SDS011;10918;48.102;11.636;2023-08-30T03:13:54;6.53;;;5.93;;
21513;SDS011;10918;48.102;11.636;2023-08-30T03:16:20;7.78;;;6.30;;
21513;SDS011;10918;48.102;11.636;2023-08-30T03:18:46;7.38;;;5.97;;
21513;SDS011;10918;48.102;11.636;2023-08-30T03:21:12;7.30;;;5.55;;
21513;SDS011;10918;48.102;11.636;2023-08-30T03:23:39;6.05;;;5.55;;
21513;SDS011;10918;48.102;11.636;2023-08-30T03:26:08;6.53;;;5.93;;
21513;SDS011;10918;48.102;11.636;2023-08-30T03:28:34;7.13;;;5.50;;
21513;SDS011;10918;48.102;11.636;2023-08-30T03:31:00;6.75;;;6.05;;
21513;SDS011;10918;48.102;11.636;2023-08-30T03:33:26;5.65;;;5.10;;
21513;SDS011;10918;48.102;11.636;2023-08-30T03:35:52;6.38;;;5.40;;
21513;SDS011;10918;48.102;11.636;2023-08-30T03:38:18;5.97;;;5.40;;
21513;SDS011;10918;48.102;11.636;2023-08-30T03:40:44;5.80;;;5.25;;
21513;SDS011;10918;48.102;11.636;2023-08-30T03:43:10;5.80;;;4.93;;
21513;SDS011;10918;48.102;11.636;2023-08-30T03:45:36;5.95;;;5.35;;
21513;SDS011;10918;48.102;11.636;2023-08-30T03:48:03;6.07;;;5.47;;
21513;SDS011;10918;48.102;11.636;2023-08-30T03:50:29;5.82;;;5.30;;
21513;SDS011;10918;48.102;11.636;2023-08-30T03:52:55;5.55;;;5.03;;
21513;SDS011;10918;48.102;11.636;2023-08-30T03:55:21;5.95;;;5.15;;
21513;SDS011;10918;48.102;11.636;2023-08-30T03:57:47;5.60;;;5.00;;
21513;SDS011;10918;48.102;11.636;2023-08-30T04:00:14;5.80;;;5.30;;
21513;SDS011;10918;48.102;11.636;2023-08-30T04:02:40;5.85;;;4.65;;
21513;SDS011;10918;48.102;11.636;2023-08-30T04:05:06;6.28;;;5.10;;
21513;SDS011;10918;48.102;11.636;2023-08-30T04:07:35;6.30;;;4.72;;
21513;SDS011;10918;48.102;11.636;2023-08-30T04:10:01;5.13;;;4.63;;
21513;SDS011;10918;48.102;11.636;2023-08-30T04:12:31;5.15;;;4.72;;
21513;SDS011;10918;48.102;11.636;2023-08-30T04:14:57;6.50;;;4.72;;
21513;SDS011;10918;48.102;11.636;2023-08-30T04:17:23;5.80;;;4.47;;
21513;SDS011;10918;48.102;11.636;2023-08-30T04:19:51;5.10;;;4.60;;
21513;SDS011;10918;48.102;11.636;2023-08-30T04:22:18;5.63;;;4.43;;
21513;SDS011;10918;48.102;11.636;2023-08-30T04:24:44;5.20;;;4.70;;
21513;SDS011;10918;48.102;11.636;2023-08-30T04:27:10;8.02;;;4.90;;
21513;SDS011;10918;48.102;11.636;2023-08-30T04:29:36;5.30;;;4.80;;
21513;SDS011;10918;48.102;11.636;2023-08-30T04:32:02;5.10;;;4.57;;
21513;SDS011;10918;48.102;11.636;2023-08-30T04:34:28;5.22;;;4.63;;
21513;SDS011;10918;48.102;11.636;2023-08-30T04:36:55;4.50;;;4.10;;
21513;SDS011;10918;48.102;11.636;2023-08-30T04:39:21;4.13;;;3.75;;
21513;SDS011;10918;48.102;11.636;2023-08-30T04:41:47;4.10;;;3.78;;
21513;SDS011;10918;48.102;11.636;2023-08-30T04:44:13;4.35;;;3.95;;
21513;SDS011;10918;48.102;11.636;2023-08-30T04:46:39;4.13;;;3.72;;
21513;SDS011;10918;48.102;11.636;2023-08-30T04:49:05;3.67;;;3.38;;
21513;SDS011;10918;48.102;11.636;2023-08-30T04:51:31;10.32;;;8.80;;
21513;SDS011;10918;48.102;11.636;2023-08-30T04:53:57;5.20;;;4.70;;
21513;SDS011;10918;48.102;11.636;2023-08-30T04:56:23;5.35;;;4.32;;
21513;SDS011;10918;48.102;11.636;2023-08-30T04:58:49;4.25;;;3.85;;
21513;SDS011;10918;48.102;11.636;2023-08-30T05:01:15;4.75;;;4.25;;
21513;SDS011;10918;48.102;11.636;2023-08-30T05:03:42;4.30;;;3.90;;
21513;SDS011;10918;48.102;11.636;2023-08-30T05:06:08;4.85;;;4.07;;
21513;SDS011;10918;48.102;11.636;2023-08-30T05:08:34;5.55;;;4.57;;
21513;SDS011;10918;48.102;11.636;2023-08-30T05:11:00;4.38;;;3.97;;
21513;SDS011;10918;48.102;11.636;2023-08-30T05:13:25;3.97;;;3.67;;
21513;SDS011;10918;48.102;11.636;2023-08-30T05:15:51;4.53;;;4.13;;
21513;SDS011;10918;48.102;11.636;2023-08-30T05:18:18;4.47;;;4.07;;
21513;SDS011;10918;48.102;11.636;2023-08-30T05:20:44;4.28;;;3.88;;
21513;SDS011;10918;48.102;11.636;2023-08-30T05:23:10;4.70;;;4.13;;
21513;SDS011;10918;48.102;11.636;2023-08-30T05:25:36;4.40;;;4.00;;
21513;SDS011;10918;48.102;11.636;2023-08-30T05:28:02;4.10;;;3.70;;
21513;SDS011;10918;48.102;11.636;2023-08-30T05:30:28;4.50;;;4.10;;
21513;SDS011;10918;48.102;11.636;2023-08-30T05:32:54;3.95;;;3.60;;
21513;SDS011;10918;48.102;11.636;2023-08-30T05:35:20;9.77;;;8.82;;
21513;SDS011;10918;48.102;11.636;2023-08-30T05:37:46;7.10;;;6.40;;
21513;SDS011;10918;48.102;11.636;2023-08-30T05:40:12;5.13;;;4.50;;
21513;SDS011;10918;48.102;11.636;2023-08-30T05:42:41;4.97;;;4.40;;
21513;SDS011;10918;48.102;11.636;2023-08-30T05:45:08;4.60;;;4.20;;
21513;SDS011;10918;48.102;11.636;2023-08-30T05:47:34;4.72;;;4.10;;
21513;SDS011;10918;48.102;11.636;2023-08-30T05:50:00;4.90;;;4.50;;
21513;SDS011;10918;48.102;11.636;2023-08-30T05:52:26;5.28;;;4.72;;
21513;SDS011;10918;48.102;11.636;2023-08-30T05:54:52;5.03;;;4.60;;
21513;SDS011;10918;48.102;11.636;2023-08-30T05:57:20;5.80;;;4.43;;
21513;SDS011;10918;48.102;11.636;2023-08-30T05:59:47;5.72;;;4.70;;
21513;SDS011;10918;48.102;11.636;2023-08-30T06:02:13;4.88;;;4.40;;
21513;SDS011;10918;48.102;11.636;2023-08-30T06:04:39;5.75;;;4.45;;
21513;SDS011;10918;48.102;11.636;2023-08-30T06:07:05;5.22;;;4.35;;
21513;SDS011;10918;48.102;11.636;2023-08-30T06:09:31;7.00;;;4.60;;
21513;SDS011;10918;48.102;11.636;2023-08-30T06:11:57;5.85;;;4.50;;
21513;SDS011;10918;48.102;11.636;2023-08-30T06:14:23;5.00;;;4.60;;
21513;SDS011;10918;48.102;11.636;2023-08-30T06:16:49;5.05;;;4.55;;
21513;SDS011;10918;48.102;11.636;2023-08-30T06:19:15;5.15;;;4.65;;
21513;SDS011;10918;48.102;11.636;2023-08-30T06:21:41;5.95;;;5.28;;
21513;SDS011;10918;48.102;11.636;2023-08-30T06:24:07;5.20;;;4.60;;
21513;SDS011;10918;48.102;11.636;2023-08-30T06:26:33;5.40;;;4.57;;
21513;SDS011;10918;48.102;11.636;2023-08-30T06:28:59;4.63;;;4.22;;
21513;SDS011;10918;48.102;11.636;2023-08-30T06:31:25;5.72;;;4.10;;
21513;SDS011;10918;48.102;11.636;2023-08-30T06:33:52;5.22;;;4.70;;
21513;SDS011;10918;48.102;11.636;2023-08-30T06:36:19;4.72;;;4.32;;
21513;SDS011;10918;48.102;11.636;2023-08-30T06:38:47;4.70;;;4.30;;
21513;SDS011;10918;48.102;11.636;2023-08-30T06:41:13;5.93;;;4.15;;
21513;SDS011;10918;48.102;11.636;2023-08-30T06:43:39;4.10;;;3.72;;
21513;SDS011;10918;48.102;11.636;2023-08-30T06:46:05;4.90;;;3.95;;
21513;SDS011;10918;48.102;11.636;2023-08-30T06:48:31;4.20;;;3.80;;
21513;SDS011;10918;48.102;11.636;2023-08-30T06:50:58;4.10;;;3.70;;
21513;SDS011;10918;48.102;11.636;2023-08-30T06:53:24;8.07;;;4.28;;
21513;SDS011;10918;48.102;11.636;2023-08-30T06:56:00;5.60;;;3.83;;
21513;SDS011;10918;48.102;11.636;2023-08-30T06:58:26;4.32;;;3.92;;
21513;SDS011;10918;48.102;11.636;2023-08-30T07:00:52;4.75;;;3.65;;
21513;SDS011;10918;48.102;11.636;2023-08-30T07:03:18;4.97;;;4.18;;
21513;SDS011;10918;48.102;11.636;2023-08-30T07:05:44;4.60;;;3.80;;
21513;SDS011;10918;48.102;11.636;2023-08-30T07:08:12;5.35;;;4.13;;
21513;SDS011;10918;48.102;11.636;2023-08-30T07:10:39;5.28;;;4.13;;
21513;SDS011;10918;48.102;11.636;2023-08-30T07:13:05;6.43;;;4.10;;
21513;SDS011;10918;48.102;11.636;2023-08-30T07:15:35;4.30;;;3.55;;
21513;SDS011;10918;48.102;11.636;2023-08-30T07:18:01;4.10;;;3.70;;
21513;SDS011;10918;48.102;11.636;2023-08-30T07:20:28;6.60;;;3.92;;
21513;SDS011;10918;48.102;11.636;2023-08-30T07:22:54;4.30;;;3.90;;
21513;SDS011;10918;48.102;11.636;2023-08-30T07:25:20;4.30;;;3.90;;
21513;SDS011;10918;48.102;11.636;2023-08-30T07:27:46;3.85;;;3.55;;
21513;SDS011;10918;48.102;11.636;2023-08-30T07:30:12;6.93;;;4.22;;
21513;SDS011;10918;48.102;11.636;2023-08-30T07:32:38;6.13;;;3.85;;
21513;SDS011;10918;48.102;11.636;2023-08-30T07:35:04;4.40;;;4.00;;
21513;SDS011;10918;48.102;11.636;2023-08-30T07:37:30;4.50;;;4.10;;
21513;SDS011;10918;48.102;11.636;2023-08-30T07:39:56;4.82;;;4.43;;
21513;SDS011;10918;48.102;11.636;2023-08-30T07:42:22;10.77;;;9.63;;
21513;SDS011;10918;48.102;11.636;2023-08-30T07:44:49;7.05;;;5.05;;
21513;SDS011;10918;48.102;11.636;2023-08-30T07:47:15;4.47;;;4.07;;
21513;SDS011;10918;48.102;11.636;2023-08-30T07:49:41;6.43;;;4.88;;
21513;SDS011;10918;48.102;11.636;2023-08-30T07:52:07;5.30;;;4.10;;
21513;SDS011;10918;48.102;11.636;2023-08-30T07:54:36;5.00;;;4.50;;
21513;SDS011;10918;48.102;11.636;2023-08-30T07:57:03;6.57;;;5.22;;
21513;SDS011;10918;48.102;11.636;2023-08-30T07:59:30;4.70;;;4.30;;
21513;SDS011;10918;48.102;11.636;2023-08-30T08:01:55;4.88;;;4.47;;
21513;SDS011;10918;48.102;11.636;2023-08-30T08:04:21;4.50;;;4.10;;
21513;SDS011;10918;48.102;11.636;2023-08-30T08:06:47;4.95;;;4.13;;
21513;SDS011;10918;48.102;11.636;2023-08-30T08:09:13;5.47;;;4.38;;
21513;SDS011;10918;48.102;11.636;2023-08-30T08:11:40;5.65;;;4.53;;
21513;SDS011;10918;48.102;11.636;2023-08-30T08:14:08;5.50;;;4.25;;
21513;SDS011;10918;48.102;11.636;2023-08-30T08:16:35;5.50;;;4.60;;
21513;SDS011;10918;48.102;11.636;2023-08-30T08:19:01;5.15;;;4.72;;
21513;SDS011;10918;48.102;11.636;2023-08-30T08:21:27;5.57;;;4.35;;
21513;SDS011;10918;48.102;11.636;2023-08-30T08:23:53;6.40;;;4.85;;
21513;SDS011;10918;48.102;11.636;2023-08-30T08:26:19;4.95;;;4.45;;
21513;SDS011;10918;48.102;11.636;2023-08-30T08:28:45;9.80;;;8.20;;
21513;SDS011;10918;48.102;11.636;2023-08-30T08:31:11;6.13;;;5.45;;
21513;SDS011;10918;48.102;11.636;2023-08-30T08:33:37;5.22;;;4.72;;
21513;SDS011;10918;48.102;11.636;2023-08-30T08:36:03;3.92;;;3.53;;
21513;SDS011;10918;48.102;11.636;2023-08-30T08:38:29;4.35;;;3.95;;
21513;SDS011;10918;48.102;11.636;2023-08-30T08:41:00;3.80;;;3.50;;
21513;SDS011;10918;48.102;11.636;2023-08-30T08:43:28;4.32;;;3.92;;
21513;SDS011;10918;48.102;11.636;2023-08-30T08:45:59;4.80;;;4.40;;
21513;SDS011;10918;48.102;11.636;2023-08-30T08:48:26;4.25;;;3.90;;
21513;SDS011;10918;48.102;11.636;2023-08-30T08:50:54;5.47;;;4.75;;
21513;SDS011;10918;48.102;11.636;2023-08-30T08:53:20;8.38;;;7.55;;
21513;SDS011;10918;48.102;11.636;2023-08-30T08:55:46;5.38;;;4.88;;
21513;SDS011;10918;48.102;11.636;2023-08-30T08:58:12;4.20;;;3.80;;
21513;SDS011;10918;48.102;11.636;2023-08-30T09:00:40;3.80;;;3.50;;
21513;SDS011;10918;48.102;11.636;2023-08-30T09:03:07;4.45;;;4.05;;
21513;SDS011;10918;48.102;11.636;2023-08-30T09:05:33;4.82;;;3.88;;
21513;SDS011;10918;48.102;11.636;2023-08-30T09:08:00;5.82;;;3.30;;
21513;SDS011;10918;48.102;11.636;2023-08-30T09:10:28;3.83;;;3.47;;
21513;SDS011;10918;48.102;11.636;2023-08-30T09:12:54;3.63;;;3.10;;
21513;SDS011;10918;48.102;11.636;2023-08-30T09:15:20;4.28;;;3.50;;
21513;SDS011;10918;48.102;11.636;2023-08-30T09:17:47;4.32;;;3.08;;
21513;SDS011;10918;48.102;11.636;2023-08-30T09:20:13;3.45;;;3.15;;
21513;SDS011;10918;48.102;11.636;2023-08-30T09:22:39;4.38;;;3.00;;
21513;SDS011;10918;48.102;11.636;2023-08-30T09:25:09;3.50;;;3.20;;
21513;SDS011;10918;48.102;11.636;2023-08-30T09:27:36;3.50;;;3.20;;
21513;SDS011;10918;48.102;11.636;2023-08-30T09:30:07;3.70;;;3.03;;
21513;SDS011;10918;48.102;11.636;2023-08-30T09:32:39;3.72;;;3.00;;
21513;SDS011;10918;48.102;11.636;2023-08-30T09:35:05;3.00;;;2.78;;
21513;SDS011;10918;48.102;11.636;2023-08-30T09:37:33;3.00;;;2.80;;
21513;SDS011;10918;48.102;11.636;2023-08-30T09:39:59;2.45;;;2.25;;
21513;SDS011;10918;48.102;11.636;2023-08-30T09:42:26;2.47;;;2.28;;
21513;SDS011;10918;48.102;11.636;2023-08-30T09:44:52;3.83;;;2.65;;
21513;SDS011;10918;48.102;11.636;2023-08-30T09:47:18;2.33;;;2.13;;
21513;SDS011;10918;48.102;11.636;2023-08-30T09:49:47;2.95;;;2.50;;
21513;SDS011;10918;48.102;11.636;2023-08-30T09:52:15;3.33;;;2.40;;
21513;SDS011;10918;48.102;11.636;2023-08-30T09:54:42;2.97;;;2.00;;
21513;SDS011;10918;48.102;11.636;2023-08-30T09:57:09;3.75;;;2.50;;
21513;SDS011;10918;48.102;11.636;2023-08-30T09:59:35;2.80;;;1.90;;
21513;SDS011;10918;48.102;11.636;2023-08-30T10:02:03;3.80;;;1.70;;
21513;SDS011;10918;48.102;11.636;2023-08-30T10:04:29;3.55;;;2.67;;
21513;SDS011;10918;48.102;11.636;2023-08-30T10:06:57;4.03;;;2.38;;
21513;SDS011;10918;48.102;11.636;2023-08-30T10:09:24;2.03;;;1.58;;
21513;SDS011;10918;48.102;11.636;2023-08-30T10:11:50;1.40;;;1.30;;
21513;SDS011;10918;48.102;11.636;2023-08-30T10:14:17;2.00;;;1.45;;
21513;SDS011;10918;48.102;11.636;2023-08-30T10:16:43;2.47;;;1.63;;
21513;SDS011;10918;48.102;11.636;2023-08-30T10:19:16;2.17;;;1.50;;
21513;SDS011;10918;48.102;11.636;2023-08-30T10:21:47;4.93;;;3.80;;
21513;SDS011;10918;48.102;11.636;2023-08-30T10:24:18;2.40;;;1.67;;
21513;SDS011;10918;48.102;11.636;2023-08-30T10:26:44;1.67;;;1.52;;
21513;SDS011;10918;48.102;11.636;2023-08-30T10:29:11;1.65;;;1.55;;
21513;SDS011;10918;48.102;11.636;2023-08-30T10:31:38;2.08;;;1.70;;
21513;SDS011;10918;48.102;11.636;2023-08-30T10:34:11;2.60;;;1.50;;
21513;SDS011;10918;48.102;11.636;2023-08-30T10:36:39;2.60;;;1.70;;
21513;SDS011;10918;48.102;11.636;2023-08-30T10:39:10;2.28;;;1.50;;
21513;SDS011;10918;48.102;11.636;2023-08-30T10:41:36;1.80;;;1.40;;
21513;SDS011;10918;48.102;11.636;2023-08-30T10:44:02;1.88;;;1.58;;
21513;SDS011;10918;48.102;11.636;2023-08-30T10:46:29;1.73;;;1.50;;
21513;SDS011;10918;48.102;11.636;2023-08-30T10:48:55;2.60;;;2.22;;
21513;SDS011;10918;48.102;11.636;2023-08-30T10:51:35;1.98;;;1.40;;
21513;SDS011;10918;48.102;11.636;2023-08-30T10:54:09;2.85;;;1.38;;
21513;SDS011;10918;48.102;11.636;2023-08-30T10:56:35;1.20;;;1.10;;
21513;SDS011;10918;48.102;11.636;2023-08-30T10:59:04;2.42;;;1.30;;
21513;SDS011;10918;48.102;11.636;2023-08-30T11:01:30;1.30;;;1.20;;
21513;SDS011;10918;48.102;11.636;2023-08-30T11:03:57;1.42;;;1.20;;
21513;SDS011;10918;48.102;11.636;2023-08-30T11:06:23;3.10;;;1.25;;
21513;SDS011;10918;48.102;11.636;2023-08-30T11:08:49;2.38;;;1.20;;
21513;SDS011;10918;48.102;11.636;2023-08-30T11:11:15;1.38;;;1.20;;
21513;SDS011;10918;48.102;11.636;2023-08-30T11:13:41;1.27;;;1.17;;
21513;SDS011;10918;48.102;11.636;2023-08-30T11:16:07;1.42;;;1.33;;
21513;SDS011;10918;48.102;11.636;2023-08-30T11:18:37;4.22;;;1.40;;
21513;SDS011;10918;48.102;11.636;2023-08-30T11:21:04;1.63;;;1.25;;
21513;SDS011;10918;48.102;11.636;2023-08-30T11:23:31;1.77;;;1.20;;
21513;SDS011;10918;48.102;11.636;2023-08-30T11:25:57;1.20;;;1.10;;
21513;SDS011;10918;48.102;11.636;2023-08-30T11:28:24;1.13;;;0.93;;
21513;SDS011;10918;48.102;11.636;2023-08-30T11:30:52;1.70;;;1.50;;
21513;SDS011;10918;48.102;11.636;2023-08-30T11:33:18;1.23;;;1.13;;
21513;SDS011;10918;48.102;11.636;2023-08-30T11:35:44;1.67;;;1.23;;
21513;SDS011;10918;48.102;11.636;2023-08-30T11:38:11;1.15;;;1.00;;
21513;SDS011;10918;48.102;11.636;2023-08-30T11:40:38;1.50;;;1.20;;
21513;SDS011;10918;48.102;11.636;2023-08-30T11:43:06;1.73;;;1.27;;
21513;SDS011;10918;48.102;11.636;2023-08-30T11:45:32;1.30;;;1.20;;
21513;SDS011;10918;48.102;11.636;2023-08-30T11:48:01;1.52;;;1.02;;
21513;SDS011;10918;48.102;11.636;2023-08-30T11:50:27;1.23;;;1.13;;
21513;SDS011;10918;48.102;11.636;2023-08-30T11:52:54;0.77;;;0.70;;
21513;SDS011;10918;48.102;11.636;2023-08-30T11:55:20;1.23;;;0.90;;
21513;SDS011;10918;48.102;11.636;2023-08-30T11:57:49;1.88;;;1.20;;
21513;SDS011;10918;48.102;11.636;2023-08-30T12:00:18;1.38;;;1.27;;
21513;SDS011;10918;48.102;11.636;2023-08-30T12:02:44;1.17;;;0.93;;
21513;SDS011;10918;48.102;11.636;2023-08-30T12:05:12;1.67;;;1.02;;
21513;SDS011;10918;48.102;11.636;2023-08-30T12:07:38;1.48;;;1.00;;
21513;SDS011;10918;48.102;11.636;2023-08-30T12:10:08;1.10;;;0.93;;
21513;SDS011;10918;48.102;11.636;2023-08-30T12:12:35;1.77;;;1.20;;
21513;SDS011;10918;48.102;11.636;2023-08-30T12:15:10;1.27;;;1.00;;
21513;SDS011;10918;48.102;11.636;2023-08-30T12:17:36;1.80;;;0.82;;
21513;SDS011;10918;48.102;11.636;2023-08-30T12:20:02;1.15;;;0.98;;
21513;SDS011;10918;48.102;11.636;2023-08-30T12:25:22;1.48;;;1.10;;
21513;SDS011;10918;48.102;11.636;2023-08-30T12:27:48;1.48;;;1.10;;
21513;SDS011;10918;48.102;11.636;2023-08-30T12:30:15;1.10;;;0.90;;
21513;SDS011;10918;48.102;11.636;2023-08-30T12:32:44;3.85;;;1.10;;
21513;SDS011;10918;48.102;11.636;2023-08-30T12:35:10;1.02;;;0.90;;
21513;SDS011;10918;48.102;11.636;2023-08-30T12:37:36;2.78;;;1.88;;
21513;SDS011;10918;48.102;11.636;2023-08-30T12:40:02;3.10;;;2.80;;
21513;SDS011;10918;48.102;11.636;2023-08-30T12:42:28;0.98;;;0.90;;
21513;SDS011;10918;48.102;11.636;2023-08-30T12:44:54;0.80;;;0.80;;
21513;SDS011;10918;48.102;11.636;2023-08-30T12:47:20;1.75;;;1.20;;
21513;SDS011;10918;48.102;11.636;2023-08-30T12:49:46;1.10;;;1.00;;
21513;SDS011;10918;48.102;11.636;2023-08-30T12:52:12;5.20;;;4.35;;
21513;SDS011;10918;48.102;11.636;2023-08-30T12:54:38;2.92;;;1.38;;
21513;SDS011;10918;48.102;11.636;2023-08-30T12:57:04;1.92;;;0.80;;
21513;SDS011;10918;48.102;11.636;2023-08-30T12:59:30;2.35;;;1.15;;
21513;SDS011;10918;48.102;11.636;2023-08-30T13:01:56;1.90;;;1.00;;
21513;SDS011;10918;48.102;11.636;2023-08-30T13:04:22;1.25;;;1.15;;
21513;SDS011;10918;48.102;11.636;2023-08-30T13:06:48;1.25;;;1.13;;
21513;SDS011;10918;48.102;11.636;2023-08-30T13:09:16;2.03;;;1.50;;
21513;SDS011;10918;48.102;11.636;2023-08-30T13:11:41;0.88;;;0.88;;
21513;SDS011;10918;48.102;11.636;2023-08-30T13:14:07;1.75;;;1.00;;
21513;SDS011;10918;48.102;11.636;2023-08-30T13:16:33;2.25;;;1.20;;
21513;SDS011;10918;48.102;11.636;2023-08-30T13:19:00;1.50;;;1.00;;
21513;SDS011;10918;48.102;11.636;2023-08-30T13:21:26;1.33;;;0.90;;
21513;SDS011;10918;48.102;11.636;2023-08-30T13:23:52;1.92;;;1.00;;
21513;SDS011;10918;48.102;11.636;2023-08-30T13:26:18;1.23;;;0.98;;
21513;SDS011;10918;48.102;11.636;2023-08-30T13:28:44;0.93;;;0.90;;
21513;SDS011;10918;48.102;11.636;2023-08-30T13:31:10;1.27;;;1.00;;
21513;SDS011;10918;48.102;11.636;2023-08-30T13:33:36;1.10;;;1.00;;
21513;SDS011;10918;48.102;11.636;2023-08-30T13:36:02;1.30;;;1.20;;
21513;SDS011;10918;48.102;11.636;2023-08-30T13:38:28;1.20;;;1.10;;
21513;SDS011;10918;48.102;11.636;2023-08-30T13:40:58;1.83;;;1.30;;
21513;SDS011;10918;48.102;11.636;2023-08-30T13:43:24;1.20;;;0.90;;
21513;SDS011;10918;48.102;11.636;2023-08-30T13:45:56;1.27;;;0.93;;
21513;SDS011;10918;48.102;11.636;2023-08-30T13:48:22;1.05;;;0.88;;
21513;SDS011;10918;48.102;11.636;2023-08-30T13:50:49;2.00;;;1.45;;
21513;SDS011;10918;48.102;11.636;2023-08-30T13:53:15;1.20;;;1.10;;
21513;SDS011;10918;48.102;11.636;2023-08-30T13:55:45;3.10;;;1.15;;
21513;SDS011;10918;48.102;11.636;2023-08-30T13:58:10;1.45;;;0.90;;
21513;SDS011;10918;48.102;11.636;2023-08-30T14:00:36;1.17;;;1.10;;
21513;SDS011;10918;48.102;11.636;2023-08-30T14:03:02;1.95;;;1.38;;
21513;SDS011;10918;48.102;11.636;2023-08-30T14:05:28;4.43;;;1.33;;
21513;SDS011;10918;48.102;11.636;2023-08-30T14:07:54;1.27;;;1.17;;
21513;SDS011;10918;48.102;11.636;2023-08-30T14:10:20;1.70;;;1.35;;
21513;SDS011;10918;48.102;11.636;2023-08-30T14:12:46;1.63;;;1.50;;
21513;SDS011;10918;48.102;11.636;2023-08-30T14:15:12;2.17;;;1.83;;
21513;SDS011;10918;48.102;11.636;2023-08-30T14:17:39;1.88;;;1.73;;
21513;SDS011;10918;48.102;11.636;2023-08-30T14:20:05;2.08;;;1.88;;
21513;SDS011;10918;48.102;11.636;2023-08-30T14:22:32;2.22;;;2.03;;
21513;SDS011;10918;48.102;11.636;2023-08-30T14:24:58;4.78;;;2.75;;
21513;SDS011;10918;48.102;11.636;2023-08-30T14:27:24;11.45;;;3.75;;
21513;SDS011;10918;48.102;11.636;2023-08-30T14:29:50;7.22;;;3.40;;
21513;SDS011;10918;48.102;11.636;2023-08-30T14:32:16;4.93;;;3.20;;
21513;SDS011;10918;48.102;11.636;2023-08-30T14:34:42;3.80;;;3.00;;